This is the latest recevied weather packets stored in our database for station/object YO2LDK-13. If no packets are shown the sender has not sent any weather packets the latest 10 day(s).
| Time | Temp. | Humidity | Pressure | Rain* | Wind** | Luminosity | Snow |
|---|---|---|---|---|---|---|---|
| 1777605919 | -0.56° C | 75% | 1015.6 hPa | 0 mm | - | 1 W/m² | - |
| 1777605620 | -0.56° C | 75% | 1015.6 hPa | 0 mm | - | 1 W/m² | - |
| 1777605319 | -0.56° C | 76% | 1015.2 hPa | 0 mm | - | 0 W/m² | - |
| 1777605020 | -0.56° C | 78% | 1015.2 hPa | 0 mm | - | 0 W/m² | - |
| 1777604720 | 0° C | 76% | 1015.2 hPa | 0 mm | - | 0 W/m² | - |
| 1777604419 | 0° C | 75% | 1015.2 hPa | 0 mm | - | 0 W/m² | - |
| 1777603820 | 0° C | 75% | 1014.9 hPa | 0 mm | - | 0 W/m² | - |
| 1777603519 | 0° C | 75% | 1015.2 hPa | 0 mm | - | 0 W/m² | - |
| 1777603220 | 0.56° C | 72% | 1014.9 hPa | 0 mm | - | 0 W/m² | - |
| 1777602919 | 0.56° C | 72% | 1014.9 hPa | 0 mm | - | 0 W/m² | - |
| 1777602620 | 0.56° C | 72% | 1014.9 hPa | 0 mm | - | 0 W/m² | - |
| 1777602320 | 1.11° C | 69% | 1014.9 hPa | 0 mm | - | 0 W/m² | - |
| 1777602019 | 1.11° C | 68% | 1015.2 hPa | 0 mm | - | 0 W/m² | - |
| 1777601720 | 1.11° C | 67% | 1015.2 hPa | 0 mm | - | 0 W/m² | - |
| 1777601420 | 1.11° C | 70% | 1014.9 hPa | 0 mm | - | 0 W/m² | - |
| 1777600520 | 1.11° C | 68% | 1015.2 hPa | 0 mm | - | 0 W/m² | - |
| 1777600220 | 1.11° C | 68% | 1014.9 hPa | 0 mm | - | 0 W/m² | - |
| 1777587320 | 4.44° C | 51% | 1015.2 hPa | 0 mm | - | 0 W/m² | - |
| 1777585220 | 5° C | 49% | 1015.2 hPa | 0 mm | - | 0 W/m² | - |
| 1777584920 | 5° C | 49% | 1014.9 hPa | 0 mm | - | 0 W/m² | - |
| 1777584320 | 5.56° C | 49% | 1014.9 hPa | 0 mm | - | 0 W/m² | - |
| 1777583720 | 5.56° C | 48% | 1014.9 hPa | 0 mm | - | 0 W/m² | - |
| 1777583419 | 5.56° C | 47% | 1014.9 hPa | 0 mm | - | 0 W/m² | - |
| 1777582820 | 6.11° C | 47% | 1015.2 hPa | 0 mm | - | 0 W/m² | - |
| 1777581920 | 6.67° C | 46% | 1014.9 hPa | 0 mm | - | 0 W/m² | - |
* Rain latest hour (hover to see other rain measurements)
** Current wind speed in m/s (hover to see current wind gust speed)